08:43
Airports
History
Links
Donate
Help keep this website running!
PayPal
Bitcoin
Information on this page is community maintained and may be outdated or inaccurate and is intended for reference only or PC simulator navigating.
Always use approved charts for navigating.
LEVX
Vigo
Vigo (LEVX)
Vigo, Galicia, Spain (36318)
(C)
Lat/Lng:42° 13' 54.82" N / 8° 37' 36.39" W
42.231894 / -8.626774
Elevation:855'ft 261mMSL
ID / ICAO:LEVX
Runways:1
Longest:(02-20) 2,414.0m 7,920ft Asphalt
Controlled:Yes
Distance To
Airport ID:
Airport Radio Frequencies
Ground: 121.7
Tower: 118.45, 123.5
Approach: 120.2
Nearby VORs <50NM
Nearby NDBs
METARUpdated 07-24-17 08:30 GMT
Altimeter: 30.30
Visibility: 6.2 statute miles
Wind: 3 knots (030°)
Temp: 19°c 66°f
Humidity: 82.7%

METAR: LEVX 240830Z 03003KT 340V100 9999 FEW012 BKN025 19/16 Q1026 NOSIG

(Powered by phpweather)
Runway 02 / 20
Dimensions:2414 x 45.1m 7920' x 148'ft
Surface:Asphalt
Edge Lights:Medium intensity
Runway 02 [A]Runway 20 [B]
Heading:011°TH 191°TH
Lat:
Lng:
42° 13' 16.6"N
8° 37' 46.78"W
42° 14' 33.04"N
8° 37' 26"W
ALS:Calvert ILS Cat II
TDZ:Yes, lighted
User Notes and Comments
Google Map
Nearby Airports
(U) BRAGA 45.5 NM
LPBR SSE 168°
(C) Santiago 47.2 NM
LEST (WX) NNE 13°
(U) Maia Airfield 67.0 NM
LPVL S 174°
(C) Porto 68.0 NM
LPPR (WX) S 182°
(U) Chaves Airfield 70.1 NM
LPCH ESE 120°
(C) A Coruna 75.0 NM
LECO (WX) N
(U) VILA REAL 81.0 NM
LPVR SE 144°
VFR Chart
Flight Planning at SkyVector.com